sensor_id;sensor_type;location;lat;lon;timestamp;P1;durP1;ratioP1;P2;durP2;ratioP2
58661;SDS011;44432;49.786;22.760;2024-03-17T00:01:46;57.80;;;37.80;;
58661;SDS011;44432;49.786;22.760;2024-03-17T00:04:16;54.00;;;38.10;;
58661;SDS011;44432;49.786;22.760;2024-03-17T00:06:47;52.10;;;36.10;;
58661;SDS011;44432;49.786;22.760;2024-03-17T00:09:17;47.90;;;30.00;;
58661;SDS011;44432;49.786;22.760;2024-03-17T00:11:47;39.30;;;24.30;;
58661;SDS011;44432;49.786;22.760;2024-03-17T00:14:18;36.80;;;23.40;;
58661;SDS011;44432;49.786;22.760;2024-03-17T00:16:49;40.50;;;23.60;;
58661;SDS011;44432;49.786;22.760;2024-03-17T00:19:19;37.90;;;23.40;;
58661;SDS011;44432;49.786;22.760;2024-03-17T00:21:51;35.70;;;22.30;;
58661;SDS011;44432;49.786;22.760;2024-03-17T00:24:22;28.40;;;20.30;;
58661;SDS011;44432;49.786;22.760;2024-03-17T00:26:52;33.90;;;20.40;;
58661;SDS011;44432;49.786;22.760;2024-03-17T00:29:22;27.80;;;19.80;;
58661;SDS011;44432;49.786;22.760;2024-03-17T00:31:53;31.80;;;20.30;;
58661;SDS011;44432;49.786;22.760;2024-03-17T00:34:24;35.40;;;20.80;;
58661;SDS011;44432;49.786;22.760;2024-03-17T00:36:55;39.30;;;29.00;;
58661;SDS011;44432;49.786;22.760;2024-03-17T00:39:26;35.90;;;29.10;;
58661;SDS011;44432;49.786;22.760;2024-03-17T00:41:57;57.80;;;47.30;;
58661;SDS011;44432;49.786;22.760;2024-03-17T00:44:27;25.20;;;18.40;;
58661;SDS011;44432;49.786;22.760;2024-03-17T00:46:58;18.00;;;13.10;;
58661;SDS011;44432;49.786;22.760;2024-03-17T00:49:28;20.00;;;10.60;;
58661;SDS011;44432;49.786;22.760;2024-03-17T00:51:58;14.90;;;9.90;;
58661;SDS011;44432;49.786;22.760;2024-03-17T00:54:29;12.50;;;9.10;;
58661;SDS011;44432;49.786;22.760;2024-03-17T00:56:59;13.50;;;9.50;;
58661;SDS011;44432;49.786;22.760;2024-03-17T00:59:29;12.70;;;9.20;;
58661;SDS011;44432;49.786;22.760;2024-03-17T01:02:00;12.60;;;8.80;;
58661;SDS011;44432;49.786;22.760;2024-03-17T01:04:31;16.70;;;9.80;;
58661;SDS011;44432;49.786;22.760;2024-03-17T01:07:02;11.90;;;8.80;;
58661;SDS011;44432;49.786;22.760;2024-03-17T01:09:32;11.80;;;8.60;;
58661;SDS011;44432;49.786;22.760;2024-03-17T01:12:03;12.50;;;8.80;;
58661;SDS011;44432;49.786;22.760;2024-03-17T01:14:34;11.60;;;9.20;;
58661;SDS011;44432;49.786;22.760;2024-03-17T01:17:04;11.70;;;8.30;;
58661;SDS011;44432;49.786;22.760;2024-03-17T01:19:34;14.80;;;8.80;;
58661;SDS011;44432;49.786;22.760;2024-03-17T01:22:05;12.30;;;8.90;;
58661;SDS011;44432;49.786;22.760;2024-03-17T01:24:35;11.90;;;8.90;;
58661;SDS011;44432;49.786;22.760;2024-03-17T01:27:09;12.40;;;8.50;;
58661;SDS011;44432;49.786;22.760;2024-03-17T01:29:43;11.60;;;7.90;;
58661;SDS011;44432;49.786;22.760;2024-03-17T01:32:13;11.50;;;8.70;;
58661;SDS011;44432;49.786;22.760;2024-03-17T01:34:44;13.40;;;9.30;;
58661;SDS011;44432;49.786;22.760;2024-03-17T01:37:14;13.50;;;8.80;;
58661;SDS011;44432;49.786;22.760;2024-03-17T01:39:44;15.60;;;9.80;;
58661;SDS011;44432;49.786;22.760;2024-03-17T01:42:17;12.90;;;9.50;;
58661;SDS011;44432;49.786;22.760;2024-03-17T01:44:47;13.40;;;9.30;;
58661;SDS011;44432;49.786;22.760;2024-03-17T01:47:18;14.30;;;8.90;;
58661;SDS011;44432;49.786;22.760;2024-03-17T01:49:48;13.20;;;9.30;;
58661;SDS011;44432;49.786;22.760;2024-03-17T01:52:20;13.20;;;9.30;;
58661;SDS011;44432;49.786;22.760;2024-03-17T01:54:51;13.50;;;9.60;;
58661;SDS011;44432;49.786;22.760;2024-03-17T01:57:21;15.00;;;9.50;;
58661;SDS011;44432;49.786;22.760;2024-03-17T01:59:52;12.00;;;9.30;;
58661;SDS011;44432;49.786;22.760;2024-03-17T02:02:24;13.90;;;9.40;;
58661;SDS011;44432;49.786;22.760;2024-03-17T02:04:55;13.70;;;9.30;;
58661;SDS011;44432;49.786;22.760;2024-03-17T02:07:25;13.90;;;9.90;;
58661;SDS011;44432;49.786;22.760;2024-03-17T02:09:56;15.20;;;9.50;;
58661;SDS011;44432;49.786;22.760;2024-03-17T02:12:27;13.70;;;9.20;;
58661;SDS011;44432;49.786;22.760;2024-03-17T02:14:59;13.60;;;9.00;;
58661;SDS011;44432;49.786;22.760;2024-03-17T02:17:32;12.30;;;9.10;;
58661;SDS011;44432;49.786;22.760;2024-03-17T02:20:03;12.10;;;8.80;;
58661;SDS011;44432;49.786;22.760;2024-03-17T02:22:35;13.80;;;9.10;;
58661;SDS011;44432;49.786;22.760;2024-03-17T02:25:06;16.40;;;10.00;;
58661;SDS011;44432;49.786;22.760;2024-03-17T02:27:37;13.10;;;9.30;;
58661;SDS011;44432;49.786;22.760;2024-03-17T02:30:07;13.50;;;10.00;;
58661;SDS011;44432;49.786;22.760;2024-03-17T02:32:38;13.70;;;10.20;;
58661;SDS011;44432;49.786;22.760;2024-03-17T02:35:08;13.80;;;9.60;;
58661;SDS011;44432;49.786;22.760;2024-03-17T02:37:39;12.70;;;9.60;;
58661;SDS011;44432;49.786;22.760;2024-03-17T02:40:10;13.80;;;10.40;;
58661;SDS011;44432;49.786;22.760;2024-03-17T02:42:41;14.00;;;10.10;;
58661;SDS011;44432;49.786;22.760;2024-03-17T02:45:12;12.50;;;9.60;;
58661;SDS011;44432;49.786;22.760;2024-03-17T02:47:43;11.90;;;9.50;;
58661;SDS011;44432;49.786;22.760;2024-03-17T02:50:13;13.90;;;9.30;;
58661;SDS011;44432;49.786;22.760;2024-03-17T02:52:43;14.70;;;10.10;;
58661;SDS011;44432;49.786;22.760;2024-03-17T02:55:14;12.80;;;9.40;;
58661;SDS011;44432;49.786;22.760;2024-03-17T02:57:45;15.20;;;9.80;;
58661;SDS011;44432;49.786;22.760;2024-03-17T03:00:15;11.40;;;9.80;;
58661;SDS011;44432;49.786;22.760;2024-03-17T03:02:47;13.40;;;10.30;;
58661;SDS011;44432;49.786;22.760;2024-03-17T03:05:17;13.90;;;10.60;;
58661;SDS011;44432;49.786;22.760;2024-03-17T03:07:48;16.60;;;10.90;;
58661;SDS011;44432;49.786;22.760;2024-03-17T03:10:19;14.70;;;11.30;;
58661;SDS011;44432;49.786;22.760;2024-03-17T03:12:49;14.60;;;11.20;;
58661;SDS011;44432;49.786;22.760;2024-03-17T03:15:20;14.10;;;11.00;;
58661;SDS011;44432;49.786;22.760;2024-03-17T03:17:50;14.70;;;11.00;;
58661;SDS011;44432;49.786;22.760;2024-03-17T03:20:21;16.70;;;11.30;;
58661;SDS011;44432;49.786;22.760;2024-03-17T03:22:51;16.50;;;12.00;;
58661;SDS011;44432;49.786;22.760;2024-03-17T03:25:21;15.60;;;12.40;;
58661;SDS011;44432;49.786;22.760;2024-03-17T03:27:52;15.60;;;12.20;;
58661;SDS011;44432;49.786;22.760;2024-03-17T03:30:25;15.70;;;12.40;;
58661;SDS011;44432;49.786;22.760;2024-03-17T03:32:55;18.10;;;12.50;;
58661;SDS011;44432;49.786;22.760;2024-03-17T03:35:27;18.30;;;13.30;;
58661;SDS011;44432;49.786;22.760;2024-03-17T03:37:58;19.20;;;13.80;;
58661;SDS011;44432;49.786;22.760;2024-03-17T03:40:28;16.50;;;13.30;;
58661;SDS011;44432;49.786;22.760;2024-03-17T03:43:00;18.00;;;13.70;;
58661;SDS011;44432;49.786;22.760;2024-03-17T03:45:30;17.40;;;13.90;;
58661;SDS011;44432;49.786;22.760;2024-03-17T03:48:01;19.00;;;14.20;;
58661;SDS011;44432;49.786;22.760;2024-03-17T03:50:33;22.90;;;14.60;;
58661;SDS011;44432;49.786;22.760;2024-03-17T03:53:03;18.40;;;14.20;;
58661;SDS011;44432;49.786;22.760;2024-03-17T03:55:34;21.30;;;14.80;;
58661;SDS011;44432;49.786;22.760;2024-03-17T03:58:05;18.40;;;14.40;;
58661;SDS011;44432;49.786;22.760;2024-03-17T04:00:35;17.50;;;13.60;;
58661;SDS011;44432;49.786;22.760;2024-03-17T04:03:07;19.60;;;14.60;;
58661;SDS011;44432;49.786;22.760;2024-03-17T04:05:37;22.70;;;15.30;;
58661;SDS011;44432;49.786;22.760;2024-03-17T04:08:07;19.60;;;14.40;;
58661;SDS011;44432;49.786;22.760;2024-03-17T04:10:37;20.10;;;15.40;;
58661;SDS011;44432;49.786;22.760;2024-03-17T04:13:08;19.20;;;15.20;;
58661;SDS011;44432;49.786;22.760;2024-03-17T04:15:38;20.10;;;14.90;;
58661;SDS011;44432;49.786;22.760;2024-03-17T04:18:08;19.70;;;15.20;;
58661;SDS011;44432;49.786;22.760;2024-03-17T04:20:41;21.40;;;15.20;;
58661;SDS011;44432;49.786;22.760;2024-03-17T04:23:11;16.80;;;13.90;;
58661;SDS011;44432;49.786;22.760;2024-03-17T04:25:41;19.50;;;14.00;;
58661;SDS011;44432;49.786;22.760;2024-03-17T04:28:11;18.90;;;13.80;;
58661;SDS011;44432;49.786;22.760;2024-03-17T04:30:42;20.00;;;13.90;;
58661;SDS011;44432;49.786;22.760;2024-03-17T04:33:13;19.70;;;15.00;;
58661;SDS011;44432;49.786;22.760;2024-03-17T04:35:44;19.90;;;15.20;;
58661;SDS011;44432;49.786;22.760;2024-03-17T04:38:14;15.10;;;10.10;;
58661;SDS011;44432;49.786;22.760;2024-03-17T04:40:46;13.60;;;7.60;;
58661;SDS011;44432;49.786;22.760;2024-03-17T04:43:17;10.90;;;7.10;;
58661;SDS011;44432;49.786;22.760;2024-03-17T04:45:48;8.90;;;6.20;;
58661;SDS011;44432;49.786;22.760;2024-03-17T04:48:27;10.30;;;5.50;;
58661;SDS011;44432;49.786;22.760;2024-03-17T04:50:57;8.10;;;4.60;;
58661;SDS011;44432;49.786;22.760;2024-03-17T04:53:29;5.80;;;4.00;;
58661;SDS011;44432;49.786;22.760;2024-03-17T04:56:03;8.60;;;5.00;;
58661;SDS011;44432;49.786;22.760;2024-03-17T04:58:35;8.40;;;4.70;;
58661;SDS011;44432;49.786;22.760;2024-03-17T05:01:06;10.10;;;5.30;;
58661;SDS011;44432;49.786;22.760;2024-03-17T05:03:37;6.80;;;4.10;;
58661;SDS011;44432;49.786;22.760;2024-03-17T05:06:07;8.60;;;4.00;;
58661;SDS011;44432;49.786;22.760;2024-03-17T05:08:38;8.30;;;3.90;;
58661;SDS011;44432;49.786;22.760;2024-03-17T05:11:08;9.70;;;4.10;;
58661;SDS011;44432;49.786;22.760;2024-03-17T05:13:39;7.00;;;3.40;;
58661;SDS011;44432;49.786;22.760;2024-03-17T05:16:09;8.50;;;3.80;;
58661;SDS011;44432;49.786;22.760;2024-03-17T05:18:40;8.10;;;3.60;;
58661;SDS011;44432;49.786;22.760;2024-03-17T05:21:10;10.60;;;4.00;;
58661;SDS011;44432;49.786;22.760;2024-03-17T05:23:41;9.70;;;4.10;;
58661;SDS011;44432;49.786;22.760;2024-03-17T05:26:11;11.40;;;4.30;;
58661;SDS011;44432;49.786;22.760;2024-03-17T05:28:41;10.60;;;4.50;;
58661;SDS011;44432;49.786;22.760;2024-03-17T05:31:12;12.00;;;5.00;;
58661;SDS011;44432;49.786;22.760;2024-03-17T05:33:45;12.10;;;4.40;;
58661;SDS011;44432;49.786;22.760;2024-03-17T05:36:16;10.40;;;4.80;;
58661;SDS011;44432;49.786;22.760;2024-03-17T05:38:47;10.20;;;4.50;;
58661;SDS011;44432;49.786;22.760;2024-03-17T05:41:18;11.00;;;4.80;;
58661;SDS011;44432;49.786;22.760;2024-03-17T05:43:53;11.90;;;5.30;;
58661;SDS011;44432;49.786;22.760;2024-03-17T05:46:25;9.10;;;4.70;;
58661;SDS011;44432;49.786;22.760;2024-03-17T05:48:56;11.10;;;6.00;;
58661;SDS011;44432;49.786;22.760;2024-03-17T05:51:26;11.40;;;5.50;;
58661;SDS011;44432;49.786;22.760;2024-03-17T05:53:57;15.60;;;5.40;;
58661;SDS011;44432;49.786;22.760;2024-03-17T05:56:27;11.20;;;5.10;;
58661;SDS011;44432;49.786;22.760;2024-03-17T05:58:57;13.00;;;4.70;;
58661;SDS011;44432;49.786;22.760;2024-03-17T06:01:28;12.70;;;4.50;;
58661;SDS011;44432;49.786;22.760;2024-03-17T06:03:58;10.00;;;3.90;;
58661;SDS011;44432;49.786;22.760;2024-03-17T06:06:32;11.90;;;4.40;;
58661;SDS011;44432;49.786;22.760;2024-03-17T06:09:02;16.60;;;4.90;;
58661;SDS011;44432;49.786;22.760;2024-03-17T06:11:36;13.20;;;4.50;;
58661;SDS011;44432;49.786;22.760;2024-03-17T06:14:06;13.10;;;4.00;;
58661;SDS011;44432;49.786;22.760;2024-03-17T06:16:39;12.60;;;4.10;;
58661;SDS011;44432;49.786;22.760;2024-03-17T06:19:11;10.80;;;4.40;;
58661;SDS011;44432;49.786;22.760;2024-03-17T06:21:42;14.10;;;3.70;;
58661;SDS011;44432;49.786;22.760;2024-03-17T06:24:12;9.70;;;3.80;;
58661;SDS011;44432;49.786;22.760;2024-03-17T06:26:43;14.30;;;4.00;;
58661;SDS011;44432;49.786;22.760;2024-03-17T06:29:14;10.30;;;4.00;;
58661;SDS011;44432;49.786;22.760;2024-03-17T06:31:45;9.10;;;3.70;;
58661;SDS011;44432;49.786;22.760;2024-03-17T06:34:16;9.60;;;3.50;;
58661;SDS011;44432;49.786;22.760;2024-03-17T06:36:48;10.90;;;3.60;;
58661;SDS011;44432;49.786;22.760;2024-03-17T06:39:18;10.90;;;3.80;;
58661;SDS011;44432;49.786;22.760;2024-03-17T06:41:49;10.50;;;3.60;;
58661;SDS011;44432;49.786;22.760;2024-03-17T06:44:19;10.80;;;3.30;;
58661;SDS011;44432;49.786;22.760;2024-03-17T06:46:52;10.70;;;3.40;;
58661;SDS011;44432;49.786;22.760;2024-03-17T06:49:22;9.80;;;3.60;;
58661;SDS011;44432;49.786;22.760;2024-03-17T06:51:52;9.70;;;3.10;;
58661;SDS011;44432;49.786;22.760;2024-03-17T06:54:23;11.20;;;3.60;;
58661;SDS011;44432;49.786;22.760;2024-03-17T06:56:53;13.40;;;3.80;;
58661;SDS011;44432;49.786;22.760;2024-03-17T06:59:23;13.60;;;3.70;;
58661;SDS011;44432;49.786;22.760;2024-03-17T07:01:54;9.90;;;3.30;;
58661;SDS011;44432;49.786;22.760;2024-03-17T07:04:24;8.90;;;3.20;;
58661;SDS011;44432;49.786;22.760;2024-03-17T07:06:54;17.80;;;4.30;;
58661;SDS011;44432;49.786;22.760;2024-03-17T07:09:24;15.90;;;4.30;;
58661;SDS011;44432;49.786;22.760;2024-03-17T07:11:55;12.50;;;4.40;;
58661;SDS011;44432;49.786;22.760;2024-03-17T07:14:25;11.90;;;4.40;;
58661;SDS011;44432;49.786;22.760;2024-03-17T07:16:56;9.80;;;4.10;;
58661;SDS011;44432;49.786;22.760;2024-03-17T07:19:26;12.60;;;4.10;;
58661;SDS011;44432;49.786;22.760;2024-03-17T07:21:58;8.10;;;3.80;;
58661;SDS011;44432;49.786;22.760;2024-03-17T07:24:31;11.00;;;3.60;;
58661;SDS011;44432;49.786;22.760;2024-03-17T07:29:31;11.30;;;4.70;;
58661;SDS011;44432;49.786;22.760;2024-03-17T07:32:01;13.30;;;4.80;;
58661;SDS011;44432;49.786;22.760;2024-03-17T07:34:32;15.30;;;6.20;;
58661;SDS011;44432;49.786;22.760;2024-03-17T07:37:03;14.40;;;6.80;;
58661;SDS011;44432;49.786;22.760;2024-03-17T07:39:33;14.80;;;6.40;;
58661;SDS011;44432;49.786;22.760;2024-03-17T07:42:04;13.30;;;6.80;;
58661;SDS011;44432;49.786;22.760;2024-03-17T07:44:34;18.80;;;6.60;;
58661;SDS011;44432;49.786;22.760;2024-03-17T07:47:05;18.00;;;6.40;;
58661;SDS011;44432;49.786;22.760;2024-03-17T07:49:36;18.50;;;6.20;;
58661;SDS011;44432;49.786;22.760;2024-03-17T07:52:07;27.30;;;6.50;;
58661;SDS011;44432;49.786;22.760;2024-03-17T07:54:37;16.50;;;6.60;;
58661;SDS011;44432;49.786;22.760;2024-03-17T07:57:08;13.70;;;5.90;;
58661;SDS011;44432;49.786;22.760;2024-03-17T07:59:38;16.40;;;9.00;;
58661;SDS011;44432;49.786;22.760;2024-03-17T08:02:10;18.20;;;9.40;;
58661;SDS011;44432;49.786;22.760;2024-03-17T08:04:41;17.40;;;8.70;;
58661;SDS011;44432;49.786;22.760;2024-03-17T08:07:12;16.50;;;8.00;;
58661;SDS011;44432;49.786;22.760;2024-03-17T08:09:42;13.50;;;7.00;;
58661;SDS011;44432;49.786;22.760;2024-03-17T08:12:12;16.00;;;8.20;;
58661;SDS011;44432;49.786;22.760;2024-03-17T08:14:43;11.90;;;7.60;;
58661;SDS011;44432;49.786;22.760;2024-03-17T08:17:13;18.90;;;8.60;;
58661;SDS011;44432;49.786;22.760;2024-03-17T08:19:44;15.20;;;7.80;;
58661;SDS011;44432;49.786;22.760;2024-03-17T08:22:14;14.10;;;7.10;;
58661;SDS011;44432;49.786;22.760;2024-03-17T08:24:44;14.30;;;7.00;;
58661;SDS011;44432;49.786;22.760;2024-03-17T08:27:15;15.20;;;9.10;;
58661;SDS011;44432;49.786;22.760;2024-03-17T08:29:46;14.90;;;8.10;;
58661;SDS011;44432;49.786;22.760;2024-03-17T08:32:16;17.00;;;12.70;;
58661;SDS011;44432;49.786;22.760;2024-03-17T08:34:47;15.00;;;9.60;;
58661;SDS011;44432;49.786;22.760;2024-03-17T08:37:18;16.20;;;9.50;;
58661;SDS011;44432;49.786;22.760;2024-03-17T08:39:53;22.80;;;15.20;;
58661;SDS011;44432;49.786;22.760;2024-03-17T08:42:23;22.50;;;11.80;;
58661;SDS011;44432;49.786;22.760;2024-03-17T08:44:53;15.40;;;9.30;;
58661;SDS011;44432;49.786;22.760;2024-03-17T08:47:24;16.70;;;9.00;;
58661;SDS011;44432;49.786;22.760;2024-03-17T08:49:54;13.30;;;7.00;;
58661;SDS011;44432;49.786;22.760;2024-03-17T08:52:25;18.70;;;10.30;;
58661;SDS011;44432;49.786;22.760;2024-03-17T08:54:56;19.10;;;9.10;;
58661;SDS011;44432;49.786;22.760;2024-03-17T08:57:26;27.30;;;16.70;;
58661;SDS011;44432;49.786;22.760;2024-03-17T08:59:56;13.10;;;6.40;;
58661;SDS011;44432;49.786;22.760;2024-03-17T09:02:27;17.00;;;9.70;;
58661;SDS011;44432;49.786;22.760;2024-03-17T09:04:57;15.50;;;8.30;;
58661;SDS011;44432;49.786;22.760;2024-03-17T09:07:27;13.50;;;7.30;;
58661;SDS011;44432;49.786;22.760;2024-03-17T09:09:57;17.10;;;8.80;;
58661;SDS011;44432;49.786;22.760;2024-03-17T09:12:27;12.80;;;6.40;;
58661;SDS011;44432;49.786;22.760;2024-03-17T09:14:58;14.30;;;6.30;;
58661;SDS011;44432;49.786;22.760;2024-03-17T09:17:28;13.60;;;6.70;;
58661;SDS011;44432;49.786;22.760;2024-03-17T09:19:59;12.40;;;5.70;;
58661;SDS011;44432;49.786;22.760;2024-03-17T09:22:29;12.50;;;6.60;;
58661;SDS011;44432;49.786;22.760;2024-03-17T09:24:59;13.40;;;7.30;;
58661;SDS011;44432;49.786;22.760;2024-03-17T09:27:29;14.20;;;6.70;;
58661;SDS011;44432;49.786;22.760;2024-03-17T09:30:00;12.80;;;5.90;;
58661;SDS011;44432;49.786;22.760;2024-03-17T09:32:33;14.10;;;7.00;;
58661;SDS011;44432;49.786;22.760;2024-03-17T09:35:03;14.00;;;6.10;;
58661;SDS011;44432;49.786;22.760;2024-03-17T09:37:35;19.70;;;7.20;;
58661;SDS011;44432;49.786;22.760;2024-03-17T09:40:08;15.80;;;6.60;;
58661;SDS011;44432;49.786;22.760;2024-03-17T09:42:43;11.80;;;6.40;;
58661;SDS011;44432;49.786;22.760;2024-03-17T09:45:13;15.40;;;6.30;;
58661;SDS011;44432;49.786;22.760;2024-03-17T09:47:45;15.40;;;7.00;;
58661;SDS011;44432;49.786;22.760;2024-03-17T09:50:15;16.70;;;5.10;;
58661;SDS011;44432;49.786;22.760;2024-03-17T09:52:46;11.50;;;5.30;;
58661;SDS011;44432;49.786;22.760;2024-03-17T09:55:16;17.60;;;7.90;;
58661;SDS011;44432;49.786;22.760;2024-03-17T09:57:47;12.50;;;5.60;;
58661;SDS011;44432;49.786;22.760;2024-03-17T10:00:18;11.80;;;5.60;;
58661;SDS011;44432;49.786;22.760;2024-03-17T10:02:48;11.00;;;4.70;;
58661;SDS011;44432;49.786;22.760;2024-03-17T10:05:19;14.80;;;5.50;;
58661;SDS011;44432;49.786;22.760;2024-03-17T10:07:51;10.80;;;3.80;;
58661;SDS011;44432;49.786;22.760;2024-03-17T10:10:21;11.80;;;4.40;;
58661;SDS011;44432;49.786;22.760;2024-03-17T10:12:52;10.10;;;3.30;;
58661;SDS011;44432;49.786;22.760;2024-03-17T10:15:23;10.10;;;3.40;;
58661;SDS011;44432;49.786;22.760;2024-03-17T10:17:53;13.60;;;5.00;;
58661;SDS011;44432;49.786;22.760;2024-03-17T10:20:24;8.30;;;3.30;;
58661;SDS011;44432;49.786;22.760;2024-03-17T10:22:59;9.20;;;4.00;;
58661;SDS011;44432;49.786;22.760;2024-03-17T10:25:33;7.90;;;3.60;;
58661;SDS011;44432;49.786;22.760;2024-03-17T10:28:11;9.00;;;3.90;;
58661;SDS011;44432;49.786;22.760;2024-03-17T10:30:43;8.60;;;4.00;;
58661;SDS011;44432;49.786;22.760;2024-03-17T10:33:27;10.90;;;4.70;;
58661;SDS011;44432;49.786;22.760;2024-03-17T10:36:00;9.90;;;4.60;;
58661;SDS011;44432;49.786;22.760;2024-03-17T10:38:33;14.70;;;7.10;;
58661;SDS011;44432;49.786;22.760;2024-03-17T10:41:03;12.10;;;5.20;;
58661;SDS011;44432;49.786;22.760;2024-03-17T10:43:34;9.40;;;4.20;;
58661;SDS011;44432;49.786;22.760;2024-03-17T10:46:05;12.00;;;5.60;;
58661;SDS011;44432;49.786;22.760;2024-03-17T10:48:38;9.20;;;4.20;;
58661;SDS011;44432;49.786;22.760;2024-03-17T10:51:10;10.70;;;3.90;;
58661;SDS011;44432;49.786;22.760;2024-03-17T10:53:46;8.60;;;3.20;;
58661;SDS011;44432;49.786;22.760;2024-03-17T10:56:20;8.10;;;3.70;;
58661;SDS011;44432;49.786;22.760;2024-03-17T10:58:51;10.30;;;4.70;;
58661;SDS011;44432;49.786;22.760;2024-03-17T11:01:25;10.50;;;4.20;;
58661;SDS011;44432;49.786;22.760;2024-03-17T11:03:56;8.50;;;4.30;;
58661;SDS011;44432;49.786;22.760;2024-03-17T11:06:27;11.60;;;4.70;;
58661;SDS011;44432;49.786;22.760;2024-03-17T11:08:59;9.30;;;3.70;;
58661;SDS011;44432;49.786;22.760;2024-03-17T11:11:37;12.30;;;4.00;;
58661;SDS011;44432;49.786;22.760;2024-03-17T11:14:16;10.50;;;3.70;;
58661;SDS011;44432;49.786;22.760;2024-03-17T11:16:47;10.20;;;3.40;;
58661;SDS011;44432;49.786;22.760;2024-03-17T11:19:18;8.80;;;4.50;;
58661;SDS011;44432;49.786;22.760;2024-03-17T11:21:48;8.40;;;3.20;;
58661;SDS011;44432;49.786;22.760;2024-03-17T11:24:19;8.30;;;3.30;;
58661;SDS011;44432;49.786;22.760;2024-03-17T11:26:50;9.20;;;3.50;;
58661;SDS011;44432;49.786;22.760;2024-03-17T11:29:29;12.00;;;3.90;;
58661;SDS011;44432;49.786;22.760;2024-03-17T11:32:00;12.00;;;3.40;;
58661;SDS011;44432;49.786;22.760;2024-03-17T11:34:56;10.60;;;5.80;;
58661;SDS011;44432;49.786;22.760;2024-03-17T11:37:43;9.30;;;3.90;;
58661;SDS011;44432;49.786;22.760;2024-03-17T11:43:03;13.30;;;6.00;;
58661;SDS011;44432;49.786;22.760;2024-03-17T11:45:35;12.00;;;5.50;;
58661;SDS011;44432;49.786;22.760;2024-03-17T11:48:06;7.00;;;3.10;;
58661;SDS011;44432;49.786;22.760;2024-03-17T11:50:42;10.10;;;2.70;;
58661;SDS011;44432;49.786;22.760;2024-03-17T11:53:14;6.70;;;3.00;;
58661;SDS011;44432;49.786;22.760;2024-03-17T11:55:49;9.60;;;2.90;;
58661;SDS011;44432;49.786;22.760;2024-03-17T11:58:19;8.60;;;2.40;;
58661;SDS011;44432;49.786;22.760;2024-03-17T12:00:52;8.00;;;2.90;;
58661;SDS011;44432;49.786;22.760;2024-03-17T12:05:51;6.30;;;1.90;;
58661;SDS011;44432;49.786;22.760;2024-03-17T12:08:22;10.50;;;2.80;;
58661;SDS011;44432;49.786;22.760;2024-03-17T12:10:52;6.60;;;2.60;;
58661;SDS011;44432;49.786;22.760;2024-03-17T12:13:23;7.10;;;2.70;;
58661;SDS011;44432;49.786;22.760;2024-03-17T12:16:11;8.10;;;2.50;;
58661;SDS011;44432;49.786;22.760;2024-03-17T12:18:42;4.60;;;1.90;;
58661;SDS011;44432;49.786;22.760;2024-03-17T12:21:13;3.80;;;1.50;;
58661;SDS011;44432;49.786;22.760;2024-03-17T12:23:44;6.90;;;2.70;;
58661;SDS011;44432;49.786;22.760;2024-03-17T12:26:16;7.40;;;2.60;;
58661;SDS011;44432;49.786;22.760;2024-03-17T12:28:47;6.70;;;2.40;;
58661;SDS011;44432;49.786;22.760;2024-03-17T12:31:17;9.20;;;3.10;;
58661;SDS011;44432;49.786;22.760;2024-03-17T12:33:48;7.20;;;2.10;;
58661;SDS011;44432;49.786;22.760;2024-03-17T12:36:18;7.30;;;2.70;;
58661;SDS011;44432;49.786;22.760;2024-03-17T12:38:49;8.30;;;2.60;;
58661;SDS011;44432;49.786;22.760;2024-03-17T12:41:19;7.80;;;4.00;;
58661;SDS011;44432;49.786;22.760;2024-03-17T12:43:50;7.40;;;2.40;;
58661;SDS011;44432;49.786;22.760;2024-03-17T12:46:27;9.40;;;3.50;;
58661;SDS011;44432;49.786;22.760;2024-03-17T12:49:10;9.10;;;3.90;;
58661;SDS011;44432;49.786;22.760;2024-03-17T12:51:42;7.20;;;2.70;;
58661;SDS011;44432;49.786;22.760;2024-03-17T12:54:15;5.70;;;1.90;;
58661;SDS011;44432;49.786;22.760;2024-03-17T12:56:47;5.40;;;2.00;;
58661;SDS011;44432;49.786;22.760;2024-03-17T12:59:40;4.20;;;1.90;;
58661;SDS011;44432;49.786;22.760;2024-03-17T13:02:29;7.30;;;2.70;;
58661;SDS011;44432;49.786;22.760;2024-03-17T13:05:09;8.10;;;2.70;;
58661;SDS011;44432;49.786;22.760;2024-03-17T13:07:44;9.30;;;2.50;;
58661;SDS011;44432;49.786;22.760;2024-03-17T13:10:15;7.30;;;2.70;;
58661;SDS011;44432;49.786;22.760;2024-03-17T13:12:48;7.50;;;2.70;;
58661;SDS011;44432;49.786;22.760;2024-03-17T13:15:28;7.80;;;2.50;;
58661;SDS011;44432;49.786;22.760;2024-03-17T13:17:59;10.10;;;4.10;;
58661;SDS011;44432;49.786;22.760;2024-03-17T13:20:31;14.50;;;3.30;;
58661;SDS011;44432;49.786;22.760;2024-03-17T13:23:03;5.20;;;2.40;;
58661;SDS011;44432;49.786;22.760;2024-03-17T13:25:33;8.20;;;2.70;;
58661;SDS011;44432;49.786;22.760;2024-03-17T13:28:04;7.90;;;2.80;;
58661;SDS011;44432;49.786;22.760;2024-03-17T13:30:37;8.70;;;2.60;;
58661;SDS011;44432;49.786;22.760;2024-03-17T13:33:09;5.10;;;2.50;;
58661;SDS011;44432;49.786;22.760;2024-03-17T13:35:40;8.30;;;3.00;;
58661;SDS011;44432;49.786;22.760;2024-03-17T13:38:11;9.40;;;3.00;;
58661;SDS011;44432;49.786;22.760;2024-03-17T13:40:42;7.20;;;2.80;;
58661;SDS011;44432;49.786;22.760;2024-03-17T13:43:18;10.30;;;2.90;;
58661;SDS011;44432;49.786;22.760;2024-03-17T13:45:50;6.70;;;2.50;;
58661;SDS011;44432;49.786;22.760;2024-03-17T13:48:20;5.30;;;2.60;;
58661;SDS011;44432;49.786;22.760;2024-03-17T13:50:51;6.10;;;2.20;;
58661;SDS011;44432;49.786;22.760;2024-03-17T13:53:22;8.80;;;2.60;;
58661;SDS011;44432;49.786;22.760;2024-03-17T13:55:52;7.20;;;2.50;;
58661;SDS011;44432;49.786;22.760;2024-03-17T13:58:22;7.10;;;2.10;;
58661;SDS011;44432;49.786;22.760;2024-03-17T14:00:53;11.00;;;4.40;;
58661;SDS011;44432;49.786;22.760;2024-03-17T14:03:24;10.80;;;2.90;;
58661;SDS011;44432;49.786;22.760;2024-03-17T14:05:54;7.80;;;2.90;;
58661;SDS011;44432;49.786;22.760;2024-03-17T14:08:25;8.80;;;3.40;;
58661;SDS011;44432;49.786;22.760;2024-03-17T14:10:55;7.20;;;2.30;;
58661;SDS011;44432;49.786;22.760;2024-03-17T14:13:26;12.60;;;3.00;;
58661;SDS011;44432;49.786;22.760;2024-03-17T14:15:57;11.70;;;2.70;;
58661;SDS011;44432;49.786;22.760;2024-03-17T14:18:29;7.70;;;2.20;;
58661;SDS011;44432;49.786;22.760;2024-03-17T14:21:02;7.70;;;2.90;;
58661;SDS011;44432;49.786;22.760;2024-03-17T14:23:33;8.70;;;2.40;;
58661;SDS011;44432;49.786;22.760;2024-03-17T14:26:04;8.20;;;2.40;;
58661;SDS011;44432;49.786;22.760;2024-03-17T14:28:35;14.30;;;3.90;;
58661;SDS011;44432;49.786;22.760;2024-03-17T14:31:05;5.90;;;1.90;;
58661;SDS011;44432;49.786;22.760;2024-03-17T14:33:35;4.00;;;1.70;;
58661;SDS011;44432;49.786;22.760;2024-03-17T14:36:06;8.50;;;2.10;;
58661;SDS011;44432;49.786;22.760;2024-03-17T14:38:37;7.50;;;2.00;;
58661;SDS011;44432;49.786;22.760;2024-03-17T14:41:07;6.90;;;1.70;;
58661;SDS011;44432;49.786;22.760;2024-03-17T14:43:39;13.10;;;4.00;;
58661;SDS011;44432;49.786;22.760;2024-03-17T14:46:10;9.30;;;2.30;;
58661;SDS011;44432;49.786;22.760;2024-03-17T14:48:41;6.50;;;2.20;;
58661;SDS011;44432;49.786;22.760;2024-03-17T14:51:11;9.20;;;2.20;;
58661;SDS011;44432;49.786;22.760;2024-03-17T14:53:42;11.00;;;3.30;;
58661;SDS011;44432;49.786;22.760;2024-03-17T14:56:16;8.70;;;2.00;;